Time;durP1;ratioP1;P1;durP2;ratioP2;P2;SDS_P1;SDS_P2;PMS_P1;PMS_P2;Temp;Humidity;BMP_temperature;BMP_pressure;BME280_temperature;BME280_humidity;BME280_pressure;Samples;Min_cycle;Max_cycle;Signal;HPM_P1;HPM_P2
2022/06/07 00:00:34;;;;;;;;;;;;;;;23.17;82.82;97060.39;609580;233;63107;-71
2022/06/07 00:03:02;;;;;;;;;;;;;;;23.17;82.82;97060.39;609535;233;65496;-71
2022/06/07 00:05:29;;;;;;;;;;;;;;;23.17;82.82;97057.71;609581;233;64819;-71
2022/06/07 00:07:57;;;;;;;;;;;;;;;23.17;82.78;97060.39;609581;233;63078;-71
2022/06/07 00:10:25;;;;;;;;;;;;;;;23.18;82.77;97056.62;609950;232;64801;-71
2022/06/07 00:12:53;;;;;;;;;;;;;;;23.16;82.71;97053.45;610367;232;64892;-71
2022/06/07 00:15:21;;;;;;;;;;;;;;;23.17;82.67;97060.39;610317;232;65703;-71
2022/06/07 00:17:49;;;;;;;;;;;;;;;23.17;82.71;97056.91;610273;232;63187;-71
2022/06/07 00:20:16;;;;;;;;;;;;;;;23.17;82.71;97056.91;610340;232;62757;-71
2022/06/07 00:22:44;;;;;;;;;;;;;;;23.16;82.70;97050.77;610309;232;63017;-71
2022/06/07 00:25:13;;;;;;;;;;;;;;;23.17;82.70;97040.83;610385;232;62920;-71
2022/06/07 00:27:41;;;;;;;;;;;;;;;23.16;82.64;97048.08;610323;232;64934;-71
2022/06/07 00:30:11;;;;;;;;;;;;;;;23.16;82.61;97040.04;610293;232;66062;-71
2022/06/07 00:32:40;;;;;;;;;;;;;;;23.16;82.64;97031.17;610335;232;65432;-69
2022/06/07 00:35:08;;;;;;;;;;;;;;;23.16;82.63;97036.53;610350;232;64976;-69
2022/06/07 00:37:35;;;;;;;;;;;;;;;23.16;82.61;97037.36;610342;232;65304;-69
2022/06/07 00:40:03;;;;;;;;;;;;;;;23.17;82.61;97040.83;610331;232;65200;-69
2022/06/07 00:42:31;;;;;;;;;;;;;;;23.16;82.63;97036.53;610313;232;66028;-69
2022/06/07 00:44:59;;;;;;;;;;;;;;;23.15;82.61;97033.06;610281;232;63340;-69
2022/06/07 00:47:28;;;;;;;;;;;;;;;23.16;82.62;97026.63;610337;232;64980;-69
2022/06/07 00:49:57;;;;;;;;;;;;;;;23.15;82.67;97033.06;610362;232;63813;-69
2022/06/07 00:52:25;;;;;;;;;;;;;;;23.15;82.64;97030.38;610322;232;62996;-69
2022/06/07 00:54:53;;;;;;;;;;;;;;;23.15;82.60;97033.06;610325;232;65202;-69
2022/06/07 00:57:26;;;;;;;;;;;;;;;23.15;82.60;97030.38;610376;231;43790;-69
2022/06/07 00:59:54;;;;;;;;;;;;;;;23.15;82.58;97030.38;610347;232;64791;-69
2022/06/07 01:02:22;;;;;;;;;;;;;;;23.16;82.59;97031.17;610358;232;62774;-69
2022/06/07 01:04:49;;;;;;;;;;;;;;;23.14;82.56;97023.44;610385;232;64556;-69
2022/06/07 01:12:52;;;;;;;;;;;;;;;23.14;82.49;97023.44;602408;235;64981;-67
2022/06/07 01:15:21;;;;;;;;;;;;;;;23.14;82.46;97022.64;602465;235;41805;-68
2022/06/07 01:17:49;;;;;;;;;;;;;;;23.14;82.45;97034.16;605131;232;62303;-68
2022/06/07 01:20:17;;;;;;;;;;;;;;;23.13;82.48;97027.17;610354;232;63068;-68
2022/06/07 01:22:44;;;;;;;;;;;;;;;23.13;82.47;97027.17;610312;232;62996;-68
2022/06/07 01:25:12;;;;;;;;;;;;;;;23.13;82.42;97027.17;610335;232;64778;-68
2022/06/07 01:27:40;;;;;;;;;;;;;;;23.14;82.43;97023.44;610315;232;65707;-68
2022/06/07 01:30:08;;;;;;;;;;;;;;;23.13;82.42;97029.86;610285;232;63061;-68
2022/06/07 01:32:36;;;;;;;;;;;;;;;23.13;82.39;97032.53;610291;232;65496;-68
2022/06/07 01:35:04;;;;;;;;;;;;;;;23.13;82.42;97029.86;610350;232;62783;-68
2022/06/07 01:37:31;;;;;;;;;;;;;;;23.13;82.40;97029.86;610292;232;65665;-67
2022/06/07 01:42:44;;;;;;;;;;;;;;;23.13;82.39;97029.86;610315;232;62757;-68
2022/06/07 01:45:12;;;;;;;;;;;;;;;23.13;82.39;97021.81;610262;232;66025;-68
2022/06/07 01:47:41;;;;;;;;;;;;;;;23.12;82.39;97020.23;610372;232;62503;-68
2022/06/07 01:50:09;;;;;;;;;;;;;;;23.13;82.36;97018.34;610330;232;62786;-68
2022/06/07 01:52:38;;;;;;;;;;;;;;;23.12;82.33;97017.55;610279;232;62957;-68
2022/06/07 01:55:11;;;;;;;;;;;;;;;23.12;82.29;97017.55;610369;232;42572;-68
2022/06/07 01:57:44;;;;;;;;;;;;;;;23.11;82.24;97013.28;610261;232;47434;-68
2022/06/07 02:00:14;;;;;;;;;;;;;;;23.12;82.17;97014.87;610343;232;65891;-69
2022/06/07 02:02:41;;;;;;;;;;;;;;;23.13;82.16;97015.66;610398;232;65178;-68
2022/06/07 02:05:09;;;;;;;;;;;;;;;23.12;82.13;97014.08;610339;232;65698;-68
2022/06/07 02:07:37;;;;;;;;;;;;;;;23.13;82.10;97021.02;610303;232;62986;-68
2022/06/07 02:10:06;;;;;;;;;;;;;;;23.12;82.01;97025.59;610298;232;42696;-68
2022/06/07 02:12:34;;;;;;;;;;;;;;;23.12;82.04;97014.08;610315;232;65018;-69
2022/06/07 02:15:03;;;;;;;;;;;;;;;23.12;81.99;97020.23;609521;232;65198;-68
2022/06/07 02:17:31;;;;;;;;;;;;;;;23.12;82.04;97009.51;610361;232;62960;-68
2022/06/07 02:20:01;;;;;;;;;;;;;;;23.11;82.07;97010.59;609338;232;46187;-69
2022/06/07 02:22:29;;;;;;;;;;;;;;;23.11;82.08;97012.45;610295;232;62745;-68
2022/06/07 02:24:57;;;;;;;;;;;;;;;23.12;82.04;97024.80;610309;232;65094;-68
2022/06/07 02:27:24;;;;;;;;;;;;;;;23.12;82.02;97020.23;610372;232;65363;-68
2022/06/07 02:29:54;;;;;;;;;;;;;;;23.11;82.00;97018.64;610375;232;65538;-68
2022/06/07 02:32:23;;;;;;;;;;;;;;;23.11;81.98;97020.50;610354;232;65665;-68
2022/06/07 02:34:53;;;;;;;;;;;;;;;23.11;81.98;97024.00;610333;232;62850;-71
2022/06/07 02:37:21;;;;;;;;;;;;;;;23.12;81.96;97019.44;610309;232;62934;-70
2022/06/07 02:39:48;;;;;;;;;;;;;;;23.11;81.94;97024.00;610338;232;64862;-70
2022/06/07 02:42:16;;;;;;;;;;;;;;;23.11;81.92;97025.86;610372;232;65946;-70
2022/06/07 02:44:47;;;;;;;;;;;;;;;23.10;81.96;97021.59;610342;232;63004;-71
2022/06/07 02:47:14;;;;;;;;;;;;;;;23.10;81.92;97019.70;610320;232;65629;-70
2022/06/07 02:49:43;;;;;;;;;;;;;;;23.11;81.91;97017.82;610384;231;41399;-70
2022/06/07 02:52:11;;;;;;;;;;;;;;;23.10;81.93;97014.34;610364;232;62129;-70
2022/06/07 02:54:41;;;;;;;;;;;;;;;23.10;81.91;97014.34;610397;232;42311;-70
2022/06/07 02:57:09;;;;;;;;;;;;;;;23.10;81.96;97014.34;610344;232;63681;-70
2022/06/07 02:59:37;;;;;;;;;;;;;;;23.10;81.90;97016.23;610312;232;65978;-70
2022/06/07 03:02:05;;;;;;;;;;;;;;;23.09;81.86;97017.33;610347;232;65917;-70
2022/06/07 03:04:33;;;;;;;;;;;;;;;23.10;81.80;97021.59;610351;232;62693;-72
2022/06/07 03:07:02;;;;;;;;;;;;;;;23.09;81.77;97020.80;610325;232;65089;-72
2022/06/07 03:09:31;;;;;;;;;;;;;;;23.09;81.77;97018.12;610288;232;65257;-71
2022/06/07 03:11:59;;;;;;;;;;;;;;;23.09;81.79;97018.12;609556;233;65658;-70
2022/06/07 03:14:26;;;;;;;;;;;;;;;23.09;81.71;97023.48;609565;233;66012;-70
2022/06/07 03:16:54;;;;;;;;;;;;;;;23.09;81.67;97026.16;609562;233;62698;-70
2022/06/07 03:19:23;;;;;;;;;;;;;;;23.08;81.67;97029.94;609578;233;65832;-71
2022/06/07 03:21:51;;;;;;;;;;;;;;;23.09;81.65;97020.80;609620;233;66448;-68
2022/06/07 03:24:19;;;;;;;;;;;;;;;23.08;81.60;97024.58;609604;233;65511;-68
2022/06/07 03:26:47;;;;;;;;;;;;;;;23.09;81.62;97025.37;609577;233;65010;-68
2022/06/07 03:29:16;;;;;;;;;;;;;;;23.08;81.58;97021.89;609619;232;43124;-68
2022/06/07 03:31:44;;;;;;;;;;;;;;;23.08;81.53;97021.89;609570;233;65561;-68
2022/06/07 03:37:36;;;;;;;;;;;;;;;23.08;81.51;97015.71;609635;233;41334;-68
2022/06/07 03:40:05;;;;;;;;;;;;;;;23.08;81.53;97021.89;609606;233;65852;-68
2022/06/07 03:42:34;;;;;;;;;;;;;;;23.07;81.51;97022.95;609581;233;65428;-68
2022/06/07 03:45:02;;;;;;;;;;;;;;;23.08;81.53;97029.11;609564;233;66123;-68
2022/06/07 03:47:29;;;;;;;;;;;;;;;23.06;81.51;97024.05;609591;233;63812;-68
2022/06/07 03:49:59;;;;;;;;;;;;;;;23.07;81.52;97025.64;609641;232;46455;-68
2022/06/07 03:52:29;;;;;;;;;;;;;;;23.06;81.53;97033.98;609591;233;62592;-68
2022/06/07 03:54:57;;;;;;;;;;;;;;;23.07;81.51;97032.89;609604;233;64958;-68
2022/06/07 03:57:26;;;;;;;;;;;;;;;23.07;81.56;97025.64;609608;232;42128;-68
2022/06/07 03:59:55;;;;;;;;;;;;;;;23.07;81.58;97027.52;609590;232;44413;-68
2022/06/07 04:02:23;;;;;;;;;;;;;;;23.07;81.55;97030.20;609567;233;66121;-68
2022/06/07 04:04:51;;;;;;;;;;;;;;;23.06;81.57;97026.73;609595;233;62757;-68
2022/06/07 04:10:05;;;;;;;;;;;;;;;23.06;81.46;97032.09;609744;232;65849;-68
2022/06/07 04:12:35;;;;;;;;;;;;;;;23.05;81.45;97027.80;610309;231;43844;-68
2022/06/07 04:15:03;;;;;;;;;;;;;;;23.06;81.50;97026.73;610302;232;63000;-68
2022/06/07 04:17:32;;;;;;;;;;;;;;;23.07;81.46;97032.89;610323;232;65777;-68
2022/06/07 04:20:04;;;;;;;;;;;;;;;23.06;81.50;97037.45;610373;231;42053;-68
2022/06/07 04:22:32;;;;;;;;;;;;;;;23.06;81.44;97039.34;610311;232;62776;-68
2022/06/07 04:25:01;;;;;;;;;;;;;;;23.05;81.48;97043.87;610408;231;42616;-68
2022/06/07 04:27:30;;;;;;;;;;;;;;;23.06;81.47;97045.50;609488;231;66462;-68
2022/06/07 04:29:57;;;;;;;;;;;;;;;23.06;81.47;97039.34;610288;232;66230;-68
2022/06/07 04:32:25;;;;;;;;;;;;;;;23.06;81.43;97047.38;610326;232;64845;-68
2022/06/07 04:34:53;;;;;;;;;;;;;;;23.05;81.44;97043.87;610374;232;62476;-68
2022/06/07 04:37:23;;;;;;;;;;;;;;;23.06;81.47;97036.66;610336;232;44105;-68
2022/06/07 04:39:52;;;;;;;;;;;;;;;23.06;81.53;97039.34;610294;232;65755;-68
2022/06/07 04:42:20;;;;;;;;;;;;;;;23.05;81.60;97041.20;610302;232;64852;-68
2022/06/07 04:44:51;;;;;;;;;;;;;;;23.05;81.58;97038.52;610249;232;45132;-68
2022/06/07 04:47:20;;;;;;;;;;;;;;;23.04;81.65;97037.72;610418;232;42718;-68
2022/06/07 04:49:48;;;;;;;;;;;;;;;23.06;81.63;97033.98;610320;232;62294;-67
2022/06/07 04:52:16;;;;;;;;;;;;;;;23.04;81.66;97031.57;610284;232;65436;-67
2022/06/07 04:54:44;;;;;;;;;;;;;;;23.04;81.61;97032.36;610278;232;65714;-67
2022/06/07 04:57:11;;;;;;;;;;;;;;;23.04;81.64;97040.41;610308;232;62943;-69
2022/06/07 04:59:41;;;;;;;;;;;;;;;23.04;81.61;97042.30;610402;232;43276;-69
2022/06/07 05:02:09;;;;;;;;;;;;;;;23.05;81.67;97046.56;610297;232;65704;-67
2022/06/07 05:04:37;;;;;;;;;;;;;;;23.04;81.66;97047.66;610319;232;62833;-67
2022/06/07 05:07:12;;;;;;;;;;;;;;;23.04;81.70;97044.97;610394;231;46775;-69
2022/06/07 05:09:48;;;;;;;;;;;;;;;23.05;81.71;97046.56;610079;232;45885;-69
2022/06/07 05:12:17;;;;;;;;;;;;;;;23.04;81.70;97047.66;609579;232;41770;-69
2022/06/07 05:14:47;;;;;;;;;;;;;;;23.04;81.70;97053.02;609580;232;43891;-69
2022/06/07 05:17:17;;;;;;;;;;;;;;;23.03;81.73;97049.54;609603;233;42578;-69
2022/06/07 05:19:44;;;;;;;;;;;;;;;23.03;81.72;97054.90;609556;233;62291;-70
2022/06/07 05:22:16;;;;;;;;;;;;;;;23.03;81.66;97054.90;609623;232;43903;-71
2022/06/07 05:24:51;;;;;;;;;;;;;;;23.03;81.73;97065.63;609608;233;42374;-71
2022/06/07 05:27:22;;;;;;;;;;;;;;;23.03;81.74;97059.47;609609;233;65704;-71
2022/06/07 05:29:50;;;;;;;;;;;;;;;23.03;81.75;97054.11;609599;233;66046;-71
2022/06/07 05:32:29;;;;;;;;;;;;;;;23.03;81.79;97056.78;601087;235;46422;-71
2022/06/07 05:34:58;;;;;;;;;;;;;;;23.03;81.77;97064.83;609630;233;65715;-71
2022/06/07 05:37:25;;;;;;;;;;;;;;;23.02;81.75;97055.97;609592;233;62603;-71
2022/06/07 05:39:54;;;;;;;;;;;;;;;23.01;81.71;97054.38;609561;232;42568;-71
2022/06/07 05:42:22;;;;;;;;;;;;;;;23.01;81.69;97051.70;609587;233;62462;-71
2022/06/07 05:44:50;;;;;;;;;;;;;;;23.01;81.66;97051.70;609559;233;66323;-71
2022/06/07 05:47:18;;;;;;;;;;;;;;;23.02;81.70;97049.81;609575;233;65694;-71
2022/06/07 05:49:47;;;;;;;;;;;;;;;23.02;81.69;97047.92;609593;232;42327;-71
2022/06/07 05:52:19;;;;;;;;;;;;;;;23.01;81.69;97048.22;609647;232;42101;-71
2022/06/07 05:54:46;;;;;;;;;;;;;;;23.02;81.75;97044.45;609658;233;63055;-71
2022/06/07 05:57:13;;;;;;;;;;;;;;;23.01;81.69;97046.34;609459;233;64918;-71
2022/06/07 05:59:41;;;;;;;;;;;;;;;23.01;81.64;97045.55;609453;233;62437;-73
2022/06/07 06:02:11;;;;;;;;;;;;;;;23.01;81.61;97045.55;609518;233;65694;-72
2022/06/07 06:04:40;;;;;;;;;;;;;;;23.01;81.69;97048.22;609598;233;65170;-73
2022/06/07 06:07:08;;;;;;;;;;;;;;;23.01;81.60;97050.91;608953;233;66001;-71
2022/06/07 06:12:23;;;;;;;;;;;;;;;23.01;81.91;97046.34;609361;232;65753;-71
2022/06/07 06:15:09;;;;;;;;;;;;;;;23.00;81.32;97038.59;607540;233;36060;-72
2022/06/07 06:17:38;;;;;;;;;;;;;;;23.00;82.04;97033.23;607465;233;65678;-73
2022/06/07 06:20:09;;;;;;;;;;;;;;;23.00;82.29;97034.03;607329;232;42152;-74
2022/06/07 06:22:38;;;;;;;;;;;;;;;23.02;82.39;97036.41;607467;232;44384;-74
2022/06/07 06:25:07;;;;;;;;;;;;;;;23.03;82.42;97038.81;607547;233;62202;-78
2022/06/07 06:27:35;;;;;;;;;;;;;;;23.02;82.56;97031.84;607442;233;64683;-73
2022/06/07 06:30:06;;;;;;;;;;;;;;;23.03;81.33;97028.09;607539;232;44343;-72
2022/06/07 06:32:33;;;;;;;;;;;;;;;23.03;81.46;97036.14;607405;233;64132;-73
2022/06/07 06:35:01;;;;;;;;;;;;;;;23.04;81.60;97029.69;607419;233;63828;-71
2022/06/07 06:37:30;;;;;;;;;;;;;;;23.05;82.14;97035.84;607459;233;66054;-75
2022/06/07 06:39:59;;;;;;;;;;;;;;;23.05;82.23;97030.48;607419;233;46387;-75
2022/06/07 06:42:27;;;;;;;;;;;;;;;23.06;82.14;97036.66;607384;233;64898;-74
2022/06/07 06:45:14;;;;;;;;;;;;;;;23.06;82.13;97039.34;607073;233;48386;-73
2022/06/07 06:47:44;;;;;;;;;;;;;;;23.04;81.60;97028.89;607541;232;43232;-69
2022/06/07 06:50:13;;;;;;;;;;;;;;;23.06;81.61;97042.02;607441;233;65703;-71
2022/06/07 06:52:41;;;;;;;;;;;;;;;23.08;81.77;97042.52;607484;233;62355;-71
2022/06/07 06:55:09;;;;;;;;;;;;;;;23.06;82.02;97042.81;607452;233;65639;-70
2022/06/07 06:57:37;;;;;;;;;;;;;;;23.06;82.12;97037.45;607389;232;62466;-69
2022/06/07 07:00:08;;;;;;;;;;;;;;;23.07;81.63;97039.05;607462;233;66184;-72
2022/06/07 07:02:37;;;;;;;;;;;;;;;23.08;80.95;97035.30;607426;232;46074;-70
2022/06/07 07:05:15;;;;;;;;;;;;;;;23.11;81.11;97033.91;607495;232;43777;-70
2022/06/07 07:07:41;;;;;;;;;;;;;;;23.13;80.91;97039.78;607378;233;65983;-71
2022/06/07 07:10:10;;;;;;;;;;;;;;;23.09;77.72;97031.52;607380;232;62453;-71
2022/06/07 07:12:38;;;;;;;;;;;;;;;23.12;78.54;97030.95;607503;233;65475;-71
2022/06/07 07:15:11;;;;;;;;;;;;;;;23.14;79.04;97028.00;607604;233;65993;-69
2022/06/07 07:17:39;;;;;;;;;;;;;;;23.14;78.96;97026.11;607283;232;45157;-71
2022/06/07 07:20:07;;;;;;;;;;;;;;;23.16;78.84;97028.49;607564;233;65704;-71
2022/06/07 07:22:36;;;;;;;;;;;;;;;23.15;78.83;97022.34;607483;233;44194;-71
2022/06/07 07:25:06;;;;;;;;;;;;;;;23.17;78.74;97016.70;607519;233;63021;-71
2022/06/07 07:27:33;;;;;;;;;;;;;;;23.18;78.77;97020.97;607564;233;64884;-69
2022/06/07 07:30:01;;;;;;;;;;;;;;;23.18;78.81;97019.08;607576;233;66084;-71
2022/06/07 07:32:30;;;;;;;;;;;;;;;23.18;78.83;97011.04;607542;233;65038;-72
2022/06/07 07:34:58;;;;;;;;;;;;;;;23.19;78.83;97025.23;607582;233;62778;-71
2022/06/07 07:37:27;;;;;;;;;;;;;;;23.18;78.85;97016.41;607558;232;44026;-73
2022/06/07 07:39:56;;;;;;;;;;;;;;;23.19;78.85;97012.66;607421;232;43632;-73
2022/06/07 07:42:25;;;;;;;;;;;;;;;23.19;78.71;97015.34;607519;233;62401;-72
2022/06/07 07:44:54;;;;;;;;;;;;;;;23.20;78.88;97006.20;607441;232;44370;-72
2022/06/07 07:47:22;;;;;;;;;;;;;;;23.20;78.69;97011.56;607527;233;65229;-72
2022/06/07 07:49:49;;;;;;;;;;;;;;;23.20;78.98;97000.84;607483;233;62818;-71
2022/06/07 07:52:19;;;;;;;;;;;;;;;23.20;78.82;96998.16;607501;233;65726;-72
2022/06/07 07:54:49;;;;;;;;;;;;;;;23.21;78.83;97002.42;607463;232;47406;-71
2022/06/07 07:57:16;;;;;;;;;;;;;;;23.21;77.72;97005.11;607485;233;62151;-73
2022/06/07 07:59:44;;;;;;;;;;;;;;;23.20;78.56;97000.84;604093;233;66907;-73
2022/06/07 08:02:20;;;;;;;;;;;;;;;23.17;78.74;97006.77;607519;233;65778;-74
2022/06/07 08:04:49;;;;;;;;;;;;;;;23.17;79.21;97004.09;607584;233;46385;-69
2022/06/07 08:07:17;;;;;;;;;;;;;;;23.16;79.58;97004.36;607478;233;62774;-74
2022/06/07 08:09:45;;;;;;;;;;;;;;;23.14;79.58;96996.63;607491;233;62995;-73
2022/06/07 08:12:12;;;;;;;;;;;;;;;23.14;79.71;97001.20;607532;233;65235;-71
2022/06/07 08:14:40;;;;;;;;;;;;;;;23.13;79.84;96997.69;607478;233;65704;-74
2022/06/07 08:17:07;;;;;;;;;;;;;;;23.12;79.96;96988.06;607573;233;62998;-71
2022/06/07 08:19:35;;;;;;;;;;;;;;;23.13;79.71;96996.89;607537;233;62760;-71
2022/06/07 08:22:04;;;;;;;;;;;;;;;23.12;79.71;96998.78;607482;233;65454;-73
2022/06/07 08:24:32;;;;;;;;;;;;;;;23.12;79.97;96998.78;607545;233;62925;-74
2022/06/07 08:27:00;;;;;;;;;;;;;;;23.14;80.19;96993.16;607592;233;65656;-74
2022/06/07 08:29:27;;;;;;;;;;;;;;;23.13;80.58;96988.85;607456;233;65525;-73
2022/06/07 08:31:55;;;;;;;;;;;;;;;23.13;80.87;96989.65;607564;233;62895;-73
2022/06/07 08:39:53;;;;;;;;;;;;;;;23.13;81.35;96980.81;607487;233;64164;-69
2022/06/07 08:42:22;;;;;;;;;;;;;;;23.13;81.44;96978.13;607470;233;64816;-70
2022/06/07 08:44:57;;;;;;;;;;;;;;;23.13;80.77;96981.61;607488;232;65452;-70
2022/06/07 08:47:26;;;;;;;;;;;;;;;23.12;81.15;96982.70;607541;233;63046;-64
2022/06/07 08:49:55;;;;;;;;;;;;;;;23.12;81.44;96977.34;607447;233;62833;-64
2022/06/07 08:52:24;;;;;;;;;;;;;;;23.12;81.37;96974.66;607499;233;63071;-64
2022/06/07 08:54:51;;;;;;;;;;;;;;;23.12;81.09;96974.66;607553;233;64791;-65
2022/06/07 08:57:23;;;;;;;;;;;;;;;23.13;80.76;96972.77;607537;233;64888;-67
2022/06/07 08:59:52;;;;;;;;;;;;;;;23.11;80.47;96969.57;607486;231;64942;-72
2022/06/07 09:02:25;;;;;;;;;;;;;;;23.11;80.16;96966.89;607456;232;65666;-71
2022/06/07 09:04:53;;;;;;;;;;;;;;;23.11;80.15;96969.57;607246;232;64902;-71
2022/06/07 09:07:20;;;;;;;;;;;;;;;23.11;80.22;96959.67;607444;233;65478;-72
2022/06/07 09:12:36;;;;;;;;;;;;;;;23.11;80.60;96948.95;604765;234;65219;-72
2022/06/07 09:15:14;;;;;;;;;;;;;;;23.12;80.67;96955.10;604827;233;65489;-72
2022/06/07 09:17:43;;;;;;;;;;;;;;;23.11;80.71;96948.95;604798;234;62681;-73
2022/06/07 09:20:17;;;;;;;;;;;;;;;23.11;80.81;96953.48;604825;234;62816;-72
2022/06/07 09:22:50;;;;;;;;;;;;;;;23.11;80.73;96948.95;604776;234;64822;-72
2022/06/07 09:25:19;;;;;;;;;;;;;;;23.11;80.72;96946.27;604799;234;63527;-71
2022/06/07 09:27:47;;;;;;;;;;;;;;;23.11;80.67;96953.48;604815;233;62801;-71
2022/06/07 09:30:19;;;;;;;;;;;;;;;23.11;80.65;96956.16;604860;234;65260;-72
2022/06/07 09:32:51;;;;;;;;;;;;;;;23.10;80.77;96958.05;604812;234;64740;-72
2022/06/07 09:35:22;;;;;;;;;;;;;;;23.10;80.72;96955.38;604857;234;62871;-68
2022/06/07 09:37:54;;;;;;;;;;;;;;;23.11;80.85;96948.12;604872;234;64965;-73
2022/06/07 09:40:29;;;;;;;;;;;;;;;23.13;80.57;96946.75;604752;234;64617;-73
2022/06/07 09:42:58;;;;;;;;;;;;;;;23.14;80.39;96943.01;604812;234;64892;-73
2022/06/07 09:45:30;;;;;;;;;;;;;;;23.16;80.27;96945.39;604819;233;65571;-72
2022/06/07 09:47:58;;;;;;;;;;;;;;;23.18;80.14;96943.23;604752;233;63044;-72
2022/06/07 09:50:27;;;;;;;;;;;;;;;23.18;80.10;96938.66;604810;234;64912;-72
2022/06/07 09:52:56;;;;;;;;;;;;;;;23.20;80.10;96936.49;604735;233;62914;-71
2022/06/07 09:55:34;;;;;;;;;;;;;;;23.20;80.02;96941.86;604961;233;63058;-71
2022/06/07 09:58:20;;;;;;;;;;;;;;;23.20;79.99;96928.45;604839;233;64868;-71
2022/06/07 10:00:52;;;;;;;;;;;;;;;23.21;79.93;96931.92;604739;234;63123;-72
2022/06/07 10:03:27;;;;;;;;;;;;;;;23.20;80.00;96931.13;604752;233;65038;-72
2022/06/07 10:06:15;;;;;;;;;;;;;;;23.21;79.80;96927.36;604774;233;65087;-71
2022/06/07 10:08:51;;;;;;;;;;;;;;;23.20;79.92;96920.41;604696;234;65484;-73
2022/06/07 10:11:21;;;;;;;;;;;;;;;23.21;79.93;96921.99;603237;233;65197;-73
2022/06/07 10:13:50;;;;;;;;;;;;;;;23.22;79.90;96917.45;604755;233;62780;-72
2022/06/07 10:16:30;;;;;;;;;;;;;;;23.22;79.91;96920.14;604102;234;65554;-72
2022/06/07 10:18:59;;;;;;;;;;;;;;;23.22;79.94;96917.45;604751;232;63424;-72
2022/06/07 10:21:44;;;;;;;;;;;;;;;23.22;79.90;96918.25;604859;233;63710;-72
2022/06/07 10:24:16;;;;;;;;;;;;;;;23.22;79.87;96920.92;604822;234;63097;-72
2022/06/07 10:26:45;;;;;;;;;;;;;;;23.23;79.83;96919.04;604843;233;65252;-72
2022/06/07 10:29:31;;;;;;;;;;;;;;;23.22;79.80;96923.61;604796;233;64900;-73
2022/06/07 10:32:00;;;;;;;;;;;;;;;23.22;79.80;96920.92;604924;234;63132;-72
2022/06/07 10:34:46;;;;;;;;;;;;;;;23.22;79.65;96918.25;604861;234;65026;-72
2022/06/07 10:37:18;;;;;;;;;;;;;;;23.23;79.68;96913.67;604830;234;65277;-72
2022/06/07 10:39:56;;;;;;;;;;;;;;;23.23;79.65;96902.95;604858;233;62926;-72
2022/06/07 10:42:33;;;;;;;;;;;;;;;23.22;79.53;96899.48;604809;234;65208;-74
2022/06/07 10:45:06;;;;;;;;;;;;;;;23.23;79.16;96894.91;604101;234;63637;-72
2022/06/07 10:47:35;;;;;;;;;;;;;;;23.23;78.96;96892.23;604815;234;65759;-72
2022/06/07 10:50:16;;;;;;;;;;;;;;;23.24;78.92;96891.13;604913;234;65649;-72
2022/06/07 10:52:48;;;;;;;;;;;;;;;23.22;78.88;96880.71;604754;233;62953;-74
2022/06/07 10:55:19;;;;;;;;;;;;;;;23.24;78.92;96883.91;604708;233;63047;-71
2022/06/07 10:57:57;;;;;;;;;;;;;;;23.24;78.77;96875.87;604808;234;65296;-73
2022/06/07 11:00:35;;;;;;;;;;;;;;;23.24;78.68;96872.36;603815;234;64929;-73
2022/06/07 11:03:07;;;;;;;;;;;;;;;23.24;78.72;96883.91;603985;234;63047;-70
2022/06/07 11:11:10;;;;;;;;;;;;;;;23.19;78.46;96857.17;606837;233;65578;-71
2022/06/07 11:13:39;;;;;;;;;;;;;;;23.17;77.88;96863.90;607551;233;62896;-71
2022/06/07 11:16:17;;;;;;;;;;;;;;;23.16;77.66;96851.56;607108;232;65091;-71
2022/06/07 11:18:44;;;;;;;;;;;;;;;23.15;77.55;96858.81;607528;233;65636;-71
2022/06/07 11:21:14;;;;;;;;;;;;;;;23.15;77.41;96860.70;607562;233;65152;-71
2022/06/07 11:23:46;;;;;;;;;;;;;;;23.13;77.25;96852.94;607358;232;64920;-69
2022/06/07 11:26:15;;;;;;;;;;;;;;;23.14;75.10;96856.44;607533;233;63012;-69
2022/06/07 11:28:45;;;;;;;;;;;;;;;23.15;77.23;96855.34;607432;233;62781;-69
2022/06/07 11:31:23;;;;;;;;;;;;;;;23.14;77.81;96853.76;607545;233;64865;-69
2022/06/07 11:33:55;;;;;;;;;;;;;;;23.14;78.07;96851.08;607496;232;65163;-69
2022/06/07 11:36:25;;;;;;;;;;;;;;;23.14;78.47;96846.51;607594;233;65516;-71
2022/06/07 11:38:57;;;;;;;;;;;;;;;23.14;78.79;96851.08;607540;233;62891;-71
2022/06/07 11:41:38;;;;;;;;;;;;;;;23.14;79.00;96843.03;607502;233;65595;-69
2022/06/07 11:44:10;;;;;;;;;;;;;;;23.13;79.20;96839.53;607556;233;64065;-71
2022/06/07 11:46:57;;;;;;;;;;;;;;;23.13;79.41;96842.22;607567;233;66168;-72
2022/06/07 11:49:24;;;;;;;;;;;;;;;23.13;79.71;96839.53;607405;232;66772;-73
2022/06/07 11:51:56;;;;;;;;;;;;;;;23.12;79.78;96837.95;607500;233;65053;-77
2022/06/07 11:54:30;;;;;;;;;;;;;;;23.13;79.97;96839.53;607556;233;64904;-71
2022/06/07 11:56:59;;;;;;;;;;;;;;;23.11;80.04;96841.73;607499;233;64960;-71
2022/06/07 11:59:31;;;;;;;;;;;;;;;23.12;80.02;96837.16;607572;233;62959;-71
2022/06/07 12:02:04;;;;;;;;;;;;;;;23.11;79.90;96836.37;607728;232;64880;-71
2022/06/07 12:04:36;;;;;;;;;;;;;;;23.10;79.70;96837.44;607526;233;66556;-72
2022/06/07 12:07:08;;;;;;;;;;;;;;;23.11;79.69;96832.86;607492;233;63134;-71
2022/06/07 12:09:36;;;;;;;;;;;;;;;23.11;79.66;96831.00;607435;232;62737;-71
2022/06/07 12:12:22;;;;;;;;;;;;;;;23.10;79.57;96824.03;607552;233;65010;-71
2022/06/07 12:14:52;;;;;;;;;;;;;;;23.10;79.57;96826.71;607519;233;64904;-73
2022/06/07 12:17:21;;;;;;;;;;;;;;;23.11;79.53;96822.14;607828;231;64956;-71
2022/06/07 12:19:49;;;;;;;;;;;;;;;23.10;79.59;96821.35;612006;231;65500;-73
2022/06/07 12:22:18;;;;;;;;;;;;;;;23.10;79.48;96818.67;612094;232;62933;-72
2022/06/07 12:24:48;;;;;;;;;;;;;;;23.10;79.47;96807.95;611853;231;62815;-72
2022/06/07 12:27:23;;;;;;;;;;;;;;;23.10;79.54;96810.62;612026;232;65671;-70
2022/06/07 12:29:53;;;;;;;;;;;;;;;23.10;79.47;96801.80;612022;232;62978;-72
2022/06/07 12:32:22;;;;;;;;;;;;;;;23.10;79.50;96807.95;611965;232;64854;-73
2022/06/07 12:34:52;;;;;;;;;;;;;;;23.10;79.44;96807.95;611990;232;47418;-73
2022/06/07 12:37:24;;;;;;;;;;;;;;;23.11;79.52;96806.06;611571;232;65076;-73
2022/06/07 12:39:53;;;;;;;;;;;;;;;23.10;79.44;96805.27;612031;232;62802;-75
2022/06/07 12:42:21;;;;;;;;;;;;;;;23.10;79.45;96802.59;612054;232;63019;-74
2022/06/07 12:44:53;;;;;;;;;;;;;;;23.12;75.17;96797.74;611349;232;64768;-74
2022/06/07 12:47:34;;;;;;;;;;;;;;;23.13;77.74;96793.96;611309;231;64953;-76
2022/06/07 12:50:03;;;;;;;;;;;;;;;23.13;77.96;96788.60;612043;232;65541;-73
2022/06/07 12:52:32;;;;;;;;;;;;;;;23.12;78.49;96787.02;611984;232;64241;-74
2022/06/07 12:55:00;;;;;;;;;;;;;;;23.13;79.24;96790.49;611983;232;62780;-74
2022/06/07 12:57:30;;;;;;;;;;;;;;;23.13;79.57;96780.56;611386;232;63109;-73
2022/06/07 13:00:17;;;;;;;;;;;;;;;23.12;79.86;96787.02;611657;232;62937;-73
2022/06/07 13:02:49;;;;;;;;;;;;;;;23.12;80.02;96784.34;612049;232;65472;-73
2022/06/07 13:05:18;;;;;;;;;;;;;;;23.12;80.14;96778.19;611993;232;65510;-73
2022/06/07 13:07:51;;;;;;;;;;;;;;;23.12;80.18;96781.66;611977;232;65261;-72
2022/06/07 13:10:23;;;;;;;;;;;;;;;23.12;80.28;96780.87;611473;232;64858;-73
2022/06/07 13:12:52;;;;;;;;;;;;;;;23.12;80.24;96770.14;610221;232;64967;-73
2022/06/07 13:15:27;;;;;;;;;;;;;;;23.11;80.27;96774.72;610563;232;65000;-73
2022/06/07 13:17:59;;;;;;;;;;;;;;;23.11;80.42;96777.40;610561;232;65001;-71
2022/06/07 13:20:28;;;;;;;;;;;;;;;23.12;80.32;96772.83;607652;232;63293;-72
2022/06/07 13:22:57;;;;;;;;;;;;;;;23.12;80.36;96780.87;610605;232;62803;-70
2022/06/07 13:25:30;;;;;;;;;;;;;;;23.12;80.44;96773.62;610500;232;64969;-71
2022/06/07 13:28:01;;;;;;;;;;;;;;;23.12;80.48;96775.50;610376;231;65472;-69
2022/06/07 13:30:30;;;;;;;;;;;;;;;23.11;80.45;96774.72;610603;232;62896;-71
2022/06/07 13:33:08;;;;;;;;;;;;;;;23.12;80.45;96776.30;610259;232;62746;-72